createdAt,value
2019-05-09T00:02:16.223Z,97.00
2019-05-09T00:04:45.078Z,97.00
2019-05-09T00:07:14.058Z,96.60
2019-05-09T00:09:44.127Z,96.80
2019-05-09T00:12:14.179Z,96.90
2019-05-09T00:14:43.501Z,97.20
2019-05-09T00:17:14.106Z,96.60
2019-05-09T00:19:43.913Z,96.80
2019-05-09T00:22:13.712Z,96.30
2019-05-09T00:24:44.678Z,96.50
2019-05-09T00:27:14.169Z,96.60
2019-05-09T00:29:46.459Z,96.70
2019-05-09T00:32:34.386Z,97.00
2019-05-09T00:35:23.209Z,96.70
2019-05-09T00:38:04.310Z,96.60
2019-05-09T00:40:34.169Z,96.90
2019-05-09T00:43:04.092Z,96.70
2019-05-09T00:46:03.852Z,96.60
2019-05-09T00:48:49.636Z,96.70
2019-05-09T00:51:18.518Z,97.10
2019-05-09T00:53:47.304Z,96.80
2019-05-09T00:56:16.346Z,97.10
2019-05-09T00:58:45.154Z,97.20
2019-05-09T01:01:14.991Z,97.00
2019-05-09T01:03:43.899Z,97.20
2019-05-09T01:06:13.386Z,97.10
2019-05-09T01:08:44.176Z,97.20
2019-05-09T01:11:15.450Z,97.30
2019-05-09T01:13:43.866Z,97.20
2019-05-09T01:16:13.493Z,97.00
2019-05-09T01:18:43.784Z,97.20
2019-05-09T01:21:13.487Z,97.20
2019-05-09T01:23:43.570Z,97.10
2019-05-09T01:26:13.312Z,97.20
2019-05-09T01:28:44.207Z,97.30
2019-05-09T01:31:13.337Z,97.00
2019-05-09T01:33:48.195Z,97.20
2019-05-09T01:36:16.956Z,97.60
2019-05-09T01:38:45.939Z,97.30
2019-05-09T01:41:27.179Z,97.10
2019-05-09T01:43:45.281Z,97.30
2019-05-09T01:46:14.580Z,97.30
2019-05-09T01:48:43.589Z,97.30
2019-05-09T01:51:13.868Z,97.40
2019-05-09T01:53:48.823Z,97.30
2019-05-09T01:56:17.666Z,97.40
2019-05-09T01:58:46.453Z,97.40
2019-05-09T02:01:15.719Z,97.40
2019-05-09T02:03:44.555Z,97.30
2019-05-09T02:06:13.839Z,97.20
2019-05-09T02:08:43.749Z,97.00
2019-05-09T02:11:13.347Z,96.90
2019-05-09T02:13:44.233Z,97.10
2019-05-09T02:16:44.002Z,97.00
2019-05-09T02:19:17.557Z,97.00
2019-05-09T02:21:46.338Z,96.90
2019-05-09T02:24:15.168Z,97.10
2019-05-09T02:26:44.048Z,97.20
2019-05-09T02:29:13.796Z,97.40
2019-05-09T02:31:44.662Z,97.10
2019-05-09T02:34:14.952Z,96.90
2019-05-09T02:36:43.812Z,97.00
2019-05-09T02:39:12.775Z,97.10
2019-05-09T02:41:59.428Z,96.90
2019-05-09T02:44:12.057Z,97.10
2019-05-09T02:46:54.396Z,97.00
2019-05-09T02:49:23.200Z,97.10
2019-05-09T02:51:52.224Z,97.10
2019-05-09T02:54:21.133Z,97.60
2019-05-09T02:56:49.883Z,97.30
2019-05-09T02:59:29.790Z,97.50
2019-05-09T03:02:05.516Z,97.70
2019-05-09T03:04:34.469Z,97.90
2019-05-09T03:07:03.383Z,97.90
2019-05-09T03:09:32.472Z,97.90
2019-05-09T03:12:21.037Z,97.90
2019-05-09T03:14:32.316Z,98.00
2019-05-09T03:17:01.700Z,97.90
2019-05-09T03:19:30.523Z,98.20
2019-05-09T03:22:03.994Z,98.10
2019-05-09T03:24:32.773Z,98.10
2019-05-09T03:27:08.547Z,98.30
2019-05-09T03:29:43.848Z,98.80
2019-05-09T03:32:13.058Z,98.50
2019-05-09T03:34:41.825Z,98.60
2019-05-09T03:37:10.634Z,98.60
2019-05-09T03:39:39.482Z,98.80
2019-05-09T03:42:08.286Z,99.00
2019-05-09T03:44:38.496Z,99.20
2019-05-09T03:47:14.538Z,99.50
2019-05-09T03:49:43.307Z,99.70
2019-05-09T03:52:12.290Z,99.90
2019-05-09T03:54:41.100Z,99.90
2019-05-09T03:57:19.018Z,99.90
2019-05-09T03:59:48.179Z,99.90
2019-05-09T04:02:17.823Z,99.90
2019-05-09T04:04:47.610Z,99.90
2019-05-09T04:07:18.707Z,99.90
2019-05-09T04:09:48.114Z,99.90
2019-05-09T04:12:18.112Z,99.90
2019-05-09T04:14:53.595Z,99.90
2019-05-09T04:17:27.952Z,99.90
2019-05-09T04:19:57.821Z,99.90
2019-05-09T04:22:27.212Z,99.90
2019-05-09T04:24:57.656Z,99.90
2019-05-09T04:27:30.852Z,99.90
2019-05-09T04:29:59.888Z,99.90
2019-05-09T04:32:28.740Z,99.90
2019-05-09T04:34:57.853Z,99.90
2019-05-09T04:37:28.131Z,99.90
2019-05-09T04:39:59.487Z,99.90
2019-05-09T04:42:28.395Z,99.90
2019-05-09T04:45:03.560Z,99.90
2019-05-09T04:47:33.780Z,99.90
2019-05-09T04:50:03.312Z,99.90
2019-05-09T04:52:32.306Z,99.90
2019-05-09T04:55:01.146Z,99.90
2019-05-09T04:57:30.025Z,99.90
2019-05-09T04:59:59.888Z,99.90
2019-05-09T05:02:35.203Z,99.90
2019-05-09T05:05:04.213Z,99.90
2019-05-09T05:07:34.159Z,99.90
2019-05-09T05:10:03.134Z,99.90
2019-05-09T05:12:31.970Z,99.90
2019-05-09T05:15:00.831Z,99.90
2019-05-09T05:17:30.712Z,99.90
2019-05-09T05:20:01.034Z,99.70
2019-05-09T05:22:38.552Z,99.60
2019-05-09T05:25:09.296Z,99.10
2019-05-09T05:27:38.281Z,98.80
2019-05-09T05:30:07.698Z,98.70
2019-05-09T05:32:44.926Z,98.40
2019-05-09T05:35:23.323Z,98.50
2019-05-09T05:37:52.120Z,98.30
2019-05-09T05:40:21.060Z,97.60
2019-05-09T05:42:49.963Z,97.20
2019-05-09T05:45:22.546Z,97.10
2019-05-09T05:47:57.605Z,97.20
2019-05-09T05:50:28.087Z,97.10
2019-05-09T05:52:57.735Z,97.10
2019-05-09T05:55:27.536Z,96.90
2019-05-09T05:57:57.925Z,96.70
2019-05-09T06:00:28.594Z,96.60
2019-05-09T06:02:58.578Z,96.30
2019-05-09T06:05:27.985Z,95.80
2019-05-09T06:07:57.702Z,95.10
2019-05-09T06:10:28.763Z,95.60
2019-05-09T06:12:57.651Z,95.00
2019-05-09T06:15:28.882Z,95.20
2019-05-09T06:17:58.053Z,95.20
2019-05-09T06:20:28.160Z,94.60
2019-05-09T06:22:58.231Z,94.40
2019-05-09T06:25:30.594Z,94.50
2019-05-09T06:27:58.576Z,93.80
2019-05-09T06:30:29.260Z,92.90
2019-05-09T06:32:58.600Z,93.30
2019-05-09T06:35:28.357Z,92.80
2019-05-09T06:37:58.716Z,92.30
2019-05-09T06:40:28.684Z,92.80
2019-05-09T06:42:59.343Z,92.60
2019-05-09T06:45:41.344Z,92.30
2019-05-09T06:48:08.658Z,92.10
2019-05-09T06:50:37.917Z,92.20
2019-05-09T06:53:08.019Z,91.70
2019-05-09T06:55:38.574Z,91.50
2019-05-09T06:58:27.561Z,91.70
2019-05-09T07:01:02.619Z,91.90
2019-05-09T07:03:31.552Z,91.40
2019-05-09T07:06:08.308Z,91.70
2019-05-09T07:08:42.264Z,91.80
2019-05-09T07:11:11.131Z,90.40
2019-05-09T07:13:39.919Z,89.20
2019-05-09T07:16:08.981Z,88.50
2019-05-09T07:18:38.368Z,90.30
2019-05-09T07:21:08.383Z,89.30
2019-05-09T07:23:37.717Z,86.60
2019-05-09T07:26:10.961Z,86.40
2019-05-09T07:28:40.422Z,85.70
2019-05-09T07:31:28.863Z,85.80
2019-05-09T07:34:04.919Z,87.00
2019-05-09T07:36:34.015Z,85.10
2019-05-09T07:39:02.900Z,84.40
2019-05-09T07:41:33.655Z,82.00
2019-05-09T07:44:02.208Z,80.20
2019-05-09T07:46:32.487Z,78.60
2019-05-09T07:49:03.649Z,80.60
2019-05-09T07:51:32.498Z,80.60
2019-05-09T07:54:17.172Z,79.50
2019-05-09T07:56:32.035Z,79.00
2019-05-09T07:59:00.998Z,76.80
2019-05-09T08:01:29.787Z,75.70
2019-05-09T08:03:59.167Z,74.90
2019-05-09T08:06:28.847Z,77.10
2019-05-09T08:08:58.369Z,71.90
2019-05-09T08:11:28.706Z,71.80
2019-05-09T08:13:57.991Z,70.90
2019-05-09T08:16:27.877Z,68.30
2019-05-09T08:18:57.779Z,62.20
2019-05-09T08:21:27.682Z,59.50
2019-05-09T08:23:57.928Z,61.00
2019-05-09T08:26:30.245Z,58.00
2019-05-09T08:28:59.501Z,57.70
2019-05-09T08:31:28.357Z,56.60
2019-05-09T08:33:59.299Z,54.90
2019-05-09T08:36:28.310Z,54.40
2019-05-09T08:38:58.643Z,55.90
2019-05-09T08:41:29.123Z,53.20
2019-05-09T08:43:58.226Z,50.20
2019-05-09T08:46:28.654Z,46.90
2019-05-09T08:48:57.869Z,45.20
2019-05-09T08:52:06.409Z,43.30
2019-05-09T08:54:38.027Z,46.00
2019-05-09T08:57:07.822Z,46.60
2019-05-09T08:59:38.272Z,46.40
2019-05-09T09:02:14.449Z,44.40
2019-05-09T09:04:38.484Z,43.80
2019-05-09T09:07:09.834Z,44.00
2019-05-09T09:09:38.692Z,43.00
2019-05-09T09:12:25.203Z,42.70
2019-05-09T09:14:38.595Z,41.80
2019-05-09T09:17:07.987Z,42.30
2019-05-09T09:19:38.636Z,42.00
2019-05-09T09:22:08.828Z,40.20
2019-05-09T09:24:38.055Z,39.60
2019-05-09T09:27:07.699Z,36.90
2019-05-09T09:29:38.002Z,38.20
2019-05-09T09:32:08.393Z,42.20
2019-05-09T09:34:37.968Z,44.00
2019-05-09T09:37:11.274Z,45.20
2019-05-09T09:39:44.573Z,43.30
2019-05-09T09:42:09.167Z,42.80
2019-05-09T09:44:39.268Z,45.00
2019-05-09T09:47:08.685Z,44.10
2019-05-09T09:49:38.356Z,44.20
2019-05-09T09:52:08.592Z,45.30
2019-05-09T09:54:38.565Z,43.60
2019-05-09T09:57:09.657Z,41.70
2019-05-09T09:59:43.164Z,42.10
2019-05-09T10:02:13.014Z,41.80
2019-05-09T10:04:41.911Z,42.00
2019-05-09T10:07:10.781Z,42.20
2019-05-09T10:09:39.682Z,44.00
2019-05-09T10:12:09.126Z,45.80
2019-05-09T10:14:41.453Z,48.50
2019-05-09T10:17:28.392Z,48.50
2019-05-09T10:20:10.970Z,47.50
2019-05-09T10:22:46.373Z,48.80
2019-05-09T10:25:10.533Z,47.60
2019-05-09T10:27:39.447Z,50.00
2019-05-09T10:30:09.237Z,49.20
2019-05-09T10:32:38.491Z,49.20
2019-05-09T10:35:08.771Z,49.00
2019-05-09T10:37:39.215Z,48.80
2019-05-09T10:40:10.070Z,49.50
2019-05-09T10:42:49.693Z,49.70
2019-05-09T10:45:43.506Z,50.60
2019-05-09T10:48:12.682Z,50.30
2019-05-09T10:50:44.207Z,50.90
2019-05-09T10:53:12.254Z,53.20
2019-05-09T10:55:41.061Z,53.10
2019-05-09T10:58:09.867Z,54.40
2019-05-09T11:00:39.709Z,55.50
2019-05-09T11:03:08.988Z,57.90
2019-05-09T11:05:38.401Z,62.30
2019-05-09T11:08:08.180Z,71.70
2019-05-09T11:10:39.383Z,84.60
2019-05-09T11:13:08.219Z,91.80
2019-05-09T11:15:37.614Z,95.60
2019-05-09T11:18:08.144Z,98.60
2019-05-09T11:20:37.818Z,99.40
2019-05-09T11:23:08.121Z,99.90
2019-05-09T11:25:38.055Z,99.90
2019-05-09T11:28:11.476Z,99.90
2019-05-09T11:30:38.612Z,99.90
2019-05-09T11:33:08.019Z,99.90
2019-05-09T11:35:38.069Z,99.90
2019-05-09T11:38:08.347Z,99.90
2019-05-09T11:40:37.993Z,99.90
2019-05-09T11:43:07.054Z,99.70
2019-05-09T11:45:35.906Z,99.70
2019-05-09T11:48:04.870Z,99.90
2019-05-09T11:50:33.642Z,99.90
2019-05-09T11:53:02.525Z,99.90
2019-05-09T11:55:36.004Z,97.80
2019-05-09T11:58:02.468Z,97.80
2019-05-09T12:00:31.395Z,98.60
2019-05-09T12:03:00.195Z,98.80
2019-05-09T12:05:29.067Z,99.80
2019-05-09T12:07:58.337Z,99.10
2019-05-09T12:10:28.731Z,98.00
2019-05-09T12:12:57.815Z,98.80
2019-05-09T12:15:29.064Z,98.10
2019-05-09T12:17:59.270Z,99.10
2019-05-09T12:20:28.794Z,97.80
2019-05-09T12:22:58.416Z,96.50
2019-05-09T12:25:28.374Z,93.10
2019-05-09T12:27:58.420Z,90.70
2019-05-09T12:30:28.455Z,89.20
2019-05-09T12:32:59.032Z,87.00
2019-05-09T12:35:28.246Z,85.50
2019-05-09T12:37:57.081Z,82.00
2019-05-09T12:40:25.895Z,79.30
2019-05-09T12:42:54.655Z,73.20
2019-05-09T12:45:23.702Z,66.90
2019-05-09T12:48:06.256Z,55.40
2019-05-09T12:50:23.140Z,51.70
2019-05-09T12:52:51.938Z,52.30
2019-05-09T12:55:20.723Z,58.20
2019-05-09T12:57:49.603Z,60.40
2019-05-09T13:00:18.932Z,57.00
2019-05-09T13:02:47.780Z,60.80
2019-05-09T13:05:18.143Z,64.30
2019-05-09T13:07:48.099Z,62.20
2019-05-09T13:10:19.490Z,65.80
2019-05-09T13:12:48.645Z,62.90
2019-05-09T13:15:20.864Z,69.90
2019-05-09T13:17:50.647Z,64.20
2019-05-09T13:20:19.522Z,65.10
2019-05-09T13:22:48.410Z,63.50
2019-05-09T13:25:18.903Z,58.10
2019-05-09T13:27:48.022Z,58.20
2019-05-09T13:30:19.106Z,53.40
2019-05-09T13:32:48.509Z,52.50
2019-05-09T13:35:19.870Z,52.10
2019-05-09T13:37:49.059Z,55.60
2019-05-09T13:40:19.051Z,61.30
2019-05-09T13:42:48.967Z,60.90
2019-05-09T13:45:18.801Z,66.40
2019-05-09T13:47:48.475Z,65.30
2019-05-09T13:50:18.773Z,58.80
2019-05-09T13:52:48.143Z,60.60
2019-05-09T13:55:17.865Z,59.20
2019-05-09T13:57:48.686Z,56.60
2019-05-09T14:00:18.669Z,56.80
2019-05-09T14:02:49.017Z,56.00
2019-05-09T14:05:19.119Z,51.90
2019-05-09T14:07:48.834Z,51.10
2019-05-09T14:10:18.935Z,49.30
2019-05-09T14:13:04.654Z,48.10
2019-05-09T14:15:18.602Z,46.80
2019-05-09T14:17:53.090Z,46.80
2019-05-09T14:20:19.395Z,49.20
2019-05-09T14:22:49.148Z,48.50
2019-05-09T14:25:19.491Z,51.70
2019-05-09T14:27:52.100Z,51.90
2019-05-09T14:30:19.870Z,51.70
2019-05-09T14:32:49.892Z,49.20
2019-05-09T14:35:19.065Z,52.30
2019-05-09T14:37:48.719Z,53.30
2019-05-09T14:40:18.030Z,53.40
2019-05-09T14:42:49.290Z,52.70
2019-05-09T14:45:18.110Z,51.10
2019-05-09T14:47:47.419Z,49.30
2019-05-09T14:50:18.118Z,48.40
2019-05-09T14:52:49.266Z,48.90
2019-05-09T14:55:17.972Z,46.80
2019-05-09T14:57:47.985Z,48.20
2019-05-09T15:00:18.835Z,47.60
2019-05-09T15:02:48.922Z,47.70
2019-05-09T15:05:18.839Z,46.50
2019-05-09T15:07:48.044Z,47.40
2019-05-09T15:10:18.829Z,49.90
2019-05-09T15:12:48.651Z,52.20
2019-05-09T15:15:18.645Z,55.30
2019-05-09T15:17:49.212Z,55.30
2019-05-09T15:20:18.287Z,56.30
2019-05-09T15:22:48.005Z,58.00
2019-05-09T15:25:19.159Z,58.10
2019-05-09T15:27:47.845Z,57.70
2019-05-09T15:30:18.662Z,58.70
2019-05-09T15:32:47.856Z,59.20
2019-05-09T15:35:18.325Z,60.10
2019-05-09T15:37:48.167Z,57.60
2019-05-09T15:40:17.817Z,56.40
2019-05-09T15:42:47.854Z,56.60
2019-05-09T15:45:19.122Z,56.60
2019-05-09T15:47:48.423Z,57.90
2019-05-09T15:50:22.803Z,58.00
2019-05-09T15:52:48.811Z,58.40
2019-05-09T15:55:17.937Z,59.00
2019-05-09T15:57:48.583Z,60.50
2019-05-09T16:00:19.096Z,61.60
2019-05-09T16:02:48.714Z,64.20
2019-05-09T16:05:18.128Z,64.80
2019-05-09T16:07:48.242Z,72.20
2019-05-09T16:10:17.937Z,82.70
2019-05-09T16:12:48.680Z,92.50
2019-05-09T16:15:18.372Z,94.40
2019-05-09T16:17:48.585Z,96.50
2019-05-09T16:20:28.122Z,99.20
2019-05-09T16:22:48.555Z,99.90
2019-05-09T16:25:18.757Z,99.90
2019-05-09T16:27:50.819Z,99.90
2019-05-09T16:30:19.765Z,99.90
2019-05-09T16:32:48.563Z,99.90
2019-05-09T16:35:18.327Z,99.90
2019-05-09T16:37:58.293Z,99.90
2019-05-09T16:40:18.107Z,99.90
2019-05-09T16:42:48.190Z,99.90
2019-05-09T16:45:18.211Z,99.90
2019-05-09T16:47:48.572Z,99.90
2019-05-09T16:50:18.099Z,99.90
2019-05-09T16:52:48.867Z,99.90
2019-05-09T16:55:22.706Z,99.90
2019-05-09T16:57:51.806Z,99.40
2019-05-09T17:00:32.250Z,99.70
2019-05-09T17:03:01.135Z,99.00
2019-05-09T17:05:30.142Z,97.40
2019-05-09T17:07:59.003Z,97.00
2019-05-09T17:10:27.899Z,94.90
2019-05-09T17:12:58.275Z,93.90
2019-05-09T17:15:29.170Z,94.10
2019-05-09T17:17:58.023Z,95.00
2019-05-09T17:20:33.427Z,95.30
2019-05-09T17:23:15.068Z,94.80
2019-05-09T17:25:43.306Z,92.00
2019-05-09T17:28:12.059Z,92.50
2019-05-09T17:30:41.062Z,94.00
2019-05-09T17:33:10.051Z,94.50
2019-05-09T17:35:38.942Z,94.60
2019-05-09T17:38:08.821Z,95.70
2019-05-09T17:40:39.149Z,95.90
2019-05-09T17:43:08.538Z,96.40
2019-05-09T17:45:41.717Z,97.00
2019-05-09T17:48:08.724Z,97.20
2019-05-09T17:50:38.549Z,96.70
2019-05-09T17:53:08.664Z,97.10
2019-05-09T17:55:38.361Z,96.10
2019-05-09T17:58:08.734Z,96.90
2019-05-09T18:00:38.247Z,96.50
2019-05-09T18:03:07.241Z,97.10
2019-05-09T18:05:38.898Z,97.00
2019-05-09T18:08:08.105Z,96.50
2019-05-09T18:10:38.079Z,97.10
2019-05-09T18:13:08.096Z,96.50
2019-05-09T18:15:38.018Z,96.80
2019-05-09T18:18:07.584Z,96.90
2019-05-09T18:20:37.948Z,96.30
2019-05-09T18:23:08.258Z,96.00
2019-05-09T18:25:37.951Z,96.80
2019-05-09T18:28:07.211Z,96.20
2019-05-09T18:30:38.647Z,96.10
2019-05-09T18:33:21.679Z,96.30
2019-05-09T18:35:50.496Z,96.10
2019-05-09T18:38:30.433Z,95.60
2019-05-09T18:40:59.376Z,95.70
2019-05-09T18:43:28.216Z,95.80
2019-05-09T18:45:57.710Z,95.80
2019-05-09T18:48:27.800Z,95.10
2019-05-09T18:50:57.169Z,95.90
2019-05-09T18:53:26.052Z,95.70
2019-05-09T18:55:54.925Z,95.30
2019-05-09T18:58:23.765Z,95.30
2019-05-09T19:00:52.729Z,95.10
2019-05-09T19:03:21.613Z,95.30
2019-05-09T19:05:50.486Z,94.40
2019-05-09T19:08:19.326Z,94.60
2019-05-09T19:10:51.980Z,94.30
2019-05-09T19:13:18.802Z,94.10
2019-05-09T19:15:58.973Z,94.20
2019-05-09T19:18:41.887Z,94.20
2019-05-09T19:21:20.678Z,94.30
2019-05-09T19:23:49.534Z,93.90
2019-05-09T19:26:36.855Z,93.80
2019-05-09T19:29:10.050Z,93.70
2019-05-09T19:31:39.671Z,93.80
2019-05-09T19:34:09.111Z,93.70
2019-05-09T19:36:38.046Z,93.40
2019-05-09T19:39:11.713Z,93.70
2019-05-09T19:41:40.646Z,93.90
2019-05-09T19:44:09.491Z,93.90
2019-05-09T19:46:38.292Z,93.30
2019-05-09T19:49:07.227Z,93.70
2019-05-09T19:51:36.131Z,93.40
2019-05-09T19:54:05.317Z,93.70
2019-05-09T19:56:34.346Z,93.60
2019-05-09T19:59:06.732Z,93.60
2019-05-09T20:01:34.276Z,93.70
2019-05-09T20:04:03.611Z,94.00
2019-05-09T20:06:32.470Z,93.90
2019-05-09T20:09:01.343Z,94.20
2019-05-09T20:12:07.578Z,94.10
2019-05-09T20:14:39.491Z,94.20
2019-05-09T20:17:08.349Z,94.80
2019-05-09T20:19:38.330Z,94.70
2019-05-09T20:22:07.197Z,94.30
2019-05-09T20:24:35.973Z,94.60
2019-05-09T20:27:04.979Z,94.40
2019-05-09T20:29:33.924Z,94.60
2019-05-09T20:32:03.018Z,94.50
2019-05-09T20:34:31.859Z,94.50
2019-05-09T20:37:00.680Z,94.50
2019-05-09T20:39:31.032Z,94.50
2019-05-09T20:42:00.303Z,94.60
2019-05-09T20:44:29.279Z,94.70
2019-05-09T20:46:58.274Z,95.10
2019-05-09T20:49:27.320Z,96.30
2019-05-09T20:51:56.382Z,96.80
2019-05-09T20:54:25.425Z,96.70
2019-05-09T20:56:54.745Z,97.30
2019-05-09T20:59:23.759Z,97.60
2019-05-09T21:01:52.880Z,98.20
2019-05-09T21:04:21.834Z,98.30
2019-05-09T21:06:50.830Z,98.10
2019-05-09T21:09:20.080Z,98.40
2019-05-09T21:11:49.483Z,98.20
2019-05-09T21:14:18.755Z,98.20
2019-05-09T21:16:47.715Z,97.80
2019-05-09T21:19:16.666Z,97.50
2019-05-09T21:21:45.812Z,97.30
2019-05-09T21:24:14.903Z,97.10
2019-05-09T21:26:44.003Z,97.20
2019-05-09T21:29:12.994Z,97.20
2019-05-09T21:31:41.976Z,97.00
2019-05-09T21:34:11.326Z,96.70
2019-05-09T21:36:40.151Z,96.80
2019-05-09T21:39:09.028Z,96.80
2019-05-09T21:41:38.075Z,96.70
2019-05-09T21:44:06.985Z,96.70
2019-05-09T21:46:35.848Z,96.90
2019-05-09T21:49:04.793Z,96.50
2019-05-09T21:51:33.679Z,96.30
2019-05-09T21:54:02.468Z,96.50
2019-05-09T21:56:31.410Z,96.50
2019-05-09T21:59:00.547Z,96.60
2019-05-09T22:01:29.412Z,96.40
2019-05-09T22:03:58.347Z,96.40
2019-05-09T22:06:27.240Z,96.30
2019-05-09T22:08:56.082Z,96.70
2019-05-09T22:11:25.098Z,96.70
2019-05-09T22:13:53.994Z,96.70
2019-05-09T22:16:22.905Z,96.70
2019-05-09T22:18:51.767Z,96.60
2019-05-09T22:21:23.656Z,96.80
2019-05-09T22:23:56.575Z,96.90
2019-05-09T22:26:23.403Z,96.90
2019-05-09T22:28:52.344Z,97.00
2019-05-09T22:31:21.274Z,97.00
2019-05-09T22:33:50.066Z,96.90
2019-05-09T22:36:18.990Z,96.90
2019-05-09T22:38:47.928Z,96.90
2019-05-09T22:41:16.906Z,96.90
2019-05-09T22:43:45.725Z,97.00
2019-05-09T22:46:14.551Z,96.80
2019-05-09T22:48:43.682Z,97.00
2019-05-09T22:51:12.603Z,97.00
2019-05-09T22:53:41.458Z,96.90
2019-05-09T22:56:10.339Z,96.90
2019-05-09T22:58:39.515Z,96.80
2019-05-09T23:01:08.434Z,96.80
2019-05-09T23:03:37.246Z,96.90
2019-05-09T23:06:06.075Z,97.00
2019-05-09T23:08:34.932Z,96.90
2019-05-09T23:11:03.791Z,96.60
2019-05-09T23:13:51.649Z,96.50
2019-05-09T23:16:21.918Z,96.30
2019-05-09T23:18:50.864Z,96.10
2019-05-09T23:21:19.833Z,96.00
2019-05-09T23:24:00.719Z,96.30
2019-05-09T23:26:29.647Z,96.00
2019-05-09T23:28:58.420Z,95.90
2019-05-09T23:31:47.987Z,96.30
2019-05-09T23:34:16.842Z,96.40
2019-05-09T23:36:46.085Z,96.40
2019-05-09T23:39:26.011Z,96.30
2019-05-09T23:41:54.994Z,96.60
2019-05-09T23:44:24.023Z,96.80
2019-05-09T23:46:52.924Z,96.70
2019-05-09T23:49:21.720Z,96.80
2019-05-09T23:51:50.590Z,96.90
2019-05-09T23:54:47.596Z,97.00
2019-05-09T23:57:28.267Z,97.00
